Time;durP1;ratioP1;P1;durP2;ratioP2;P2;SDS_P1;SDS_P2;PMS_P1;PMS_P2;Temp;Humidity;BMP_temperature;BMP_pressure;BME280_temperature;BME280_humidity;BME280_pressure;Samples;Min_cycle;Max_cycle;Signal;HPM_P1;HPM_P2
2022/10/04 00:01:50;;;;;;;5.30;4.17;;;;;;;;;;5114973;28;20433;-72
2022/10/04 00:04:19;;;;;;;5.93;4.30;;;;;;;;;;5114085;28;20452;-72
2022/10/04 00:06:48;;;;;;;6.80;4.50;;;;;;;;;;5114657;28;20450;-72
2022/10/04 00:09:22;;;;;;;7.37;4.57;;;;;;;;;;5114246;28;20457;-72
2022/10/04 00:11:50;;;;;;;10.33;3.77;;;;;;;;;;5114429;28;20877;-72
2022/10/04 00:14:20;;;;;;;8.80;4.60;;;;;;;;;;5114613;28;20443;-72
2022/10/04 00:16:47;;;;;;;7.27;4.20;;;;;;;;;;5115003;28;20452;-72
2022/10/04 00:19:26;;;;;;;5.67;3.90;;;;;;;;;;5114219;28;20512;-72
2022/10/04 00:22:12;;;;;;;5.10;4.07;;;;;;;;;;5113962;28;20460;-73
2022/10/04 00:25:00;;;;;;;6.90;4.93;;;;;;;;;;5114272;28;20514;-72
2022/10/04 00:27:28;;;;;;;9.10;4.40;;;;;;;;;;5108294;28;20478;-72
2022/10/04 00:30:10;;;;;;;6.20;3.90;;;;;;;;;;5113212;28;20455;-72
2022/10/04 00:32:47;;;;;;;6.60;4.47;;;;;;;;;;5109510;28;20798;-71
2022/10/04 00:35:29;;;;;;;5.80;3.73;;;;;;;;;;5111951;28;20454;-71
2022/10/04 00:37:57;;;;;;;5.67;4.10;;;;;;;;;;5101488;28;20463;-72
2022/10/04 00:40:28;;;;;;;6.97;4.70;;;;;;;;;;5105015;28;20490;-72
2022/10/04 00:42:58;;;;;;;5.63;4.20;;;;;;;;;;5112970;28;20462;-72
2022/10/04 00:45:28;;;;;;;5.87;4.03;;;;;;;;;;5112886;28;20447;-72
2022/10/04 00:47:59;;;;;;;6.97;4.07;;;;;;;;;;5102595;28;20455;-72
2022/10/04 00:50:28;;;;;;;8.37;5.43;;;;;;;;;;5112074;28;20447;-72
2022/10/04 00:52:56;;;;;;;5.03;4.07;;;;;;;;;;5112612;28;20455;-72
2022/10/04 00:55:26;;;;;;;5.47;4.10;;;;;;;;;;5113359;28;20450;-73
2022/10/04 00:57:58;;;;;;;5.83;4.03;;;;;;;;;;5112289;28;20448;-72
2022/10/04 01:00:26;;;;;;;5.50;3.60;;;;;;;;;;5108923;28;20462;-72
2022/10/04 01:02:55;;;;;;;6.67;3.77;;;;;;;;;;5108664;28;20455;-72
2022/10/04 01:05:26;;;;;;;4.90;3.70;;;;;;;;;;5110398;28;20459;-72
2022/10/04 01:07:56;;;;;;;6.83;4.13;;;;;;;;;;5111696;28;20513;-72
2022/10/04 01:10:28;;;;;;;6.70;3.40;;;;;;;;;;5112672;28;20456;-71
2022/10/04 01:12:59;;;;;;;4.90;4.10;;;;;;;;;;5104706;28;20445;-72
2022/10/04 01:15:30;;;;;;;5.07;4.00;;;;;;;;;;5110632;28;20453;-72
2022/10/04 01:18:07;;;;;;;3.90;3.07;;;;;;;;;;5104016;28;20433;-72
2022/10/04 01:20:35;;;;;;;7.70;4.73;;;;;;;;;;5107858;28;20975;-72
2022/10/04 01:23:04;;;;;;;10.17;4.27;;;;;;;;;;5105293;28;20500;-71
2022/10/04 01:25:45;;;;;;;7.67;4.30;;;;;;;;;;5098512;28;20445;-71
2022/10/04 01:28:12;;;;;;;8.20;4.00;;;;;;;;;;5107039;28;20456;-71
2022/10/04 01:30:39;;;;;;;5.60;3.70;;;;;;;;;;5111346;28;20799;-71
2022/10/04 01:33:06;;;;;;;4.80;4.00;;;;;;;;;;5112445;28;20816;-71
2022/10/04 01:35:34;;;;;;;9.70;4.00;;;;;;;;;;5111516;28;20511;-72
2022/10/04 01:38:06;;;;;;;6.93;4.17;;;;;;;;;;5104357;28;20445;-71
2022/10/04 01:40:33;;;;;;;5.93;3.83;;;;;;;;;;5107786;28;20954;-72
2022/10/04 01:43:02;;;;;;;7.97;4.17;;;;;;;;;;5099572;28;21708;-72
2022/10/04 01:45:31;;;;;;;18.13;4.50;;;;;;;;;;5110542;28;20458;-72
2022/10/04 01:48:01;;;;;;;5.10;3.27;;;;;;;;;;5109214;28;20445;-71
2022/10/04 01:50:30;;;;;;;6.33;3.57;;;;;;;;;;5107119;28;20811;-72
2022/10/04 01:53:00;;;;;;;5.70;3.30;;;;;;;;;;5107486;28;20800;-72
2022/10/04 01:55:30;;;;;;;6.57;3.83;;;;;;;;;;5111522;28;20540;-72
2022/10/04 01:57:59;;;;;;;8.20;4.60;;;;;;;;;;5100334;28;20828;-71
2022/10/04 02:00:27;;;;;;;4.70;3.97;;;;;;;;;;5105174;28;20570;-71
2022/10/04 02:02:56;;;;;;;6.17;3.93;;;;;;;;;;5107267;28;20444;-72
2022/10/04 02:05:29;;;;;;;5.87;3.87;;;;;;;;;;5104959;28;20480;-71
2022/10/04 02:07:57;;;;;;;7.17;4.33;;;;;;;;;;5099833;28;20449;-73
2022/10/04 02:10:25;;;;;;;6.27;4.10;;;;;;;;;;5107725;28;20460;-71
2022/10/04 02:12:56;;;;;;;4.97;3.63;;;;;;;;;;5109725;28;20440;-72
2022/10/04 02:15:26;;;;;;;5.93;4.20;;;;;;;;;;5099732;28;20452;-71
2022/10/04 02:17:54;;;;;;;3.90;3.43;;;;;;;;;;5102859;28;20446;-71
2022/10/04 02:20:24;;;;;;;4.97;3.73;;;;;;;;;;5108245;28;20487;-71
2022/10/04 02:22:52;;;;;;;6.93;3.60;;;;;;;;;;5103642;28;20454;-71
2022/10/04 02:25:20;;;;;;;6.70;4.20;;;;;;;;;;5109185;28;20805;-71
2022/10/04 02:27:47;;;;;;;4.30;2.83;;;;;;;;;;5101993;28;20456;-71
2022/10/04 02:30:16;;;;;;;7.27;3.30;;;;;;;;;;5108995;28;20455;-71
2022/10/04 02:32:59;;;;;;;6.00;4.30;;;;;;;;;;5104322;28;20440;-71
2022/10/04 02:35:27;;;;;;;5.57;3.83;;;;;;;;;;5100119;28;20554;-72
2022/10/04 02:37:57;;;;;;;8.00;4.20;;;;;;;;;;5109754;28;20522;-72
2022/10/04 02:40:29;;;;;;;6.33;3.60;;;;;;;;;;5111884;28;20499;-72
2022/10/04 02:42:59;;;;;;;5.67;4.00;;;;;;;;;;5104713;28;20476;-71
2022/10/04 02:45:33;;;;;;;5.43;4.00;;;;;;;;;;5109083;28;20875;-72
2022/10/04 02:48:02;;;;;;;5.37;3.20;;;;;;;;;;5108736;28;20436;-71
2022/10/04 02:50:31;;;;;;;8.43;3.73;;;;;;;;;;5106541;28;20448;-71
2022/10/04 02:53:03;;;;;;;4.20;3.80;;;;;;;;;;5103385;28;20448;-71
2022/10/04 02:55:31;;;;;;;4.47;3.23;;;;;;;;;;5105531;28;20438;-71
2022/10/04 02:57:58;;;;;;;5.63;4.87;;;;;;;;;;5108687;28;20447;-71
2022/10/04 03:00:27;;;;;;;8.27;4.33;;;;;;;;;;5106111;28;20471;-71
2022/10/04 03:03:15;;;;;;;7.20;4.30;;;;;;;;;;5109391;28;20440;-71
2022/10/04 03:05:44;;;;;;;6.07;3.37;;;;;;;;;;5108665;28;20666;-71
2022/10/04 03:08:11;;;;;;;4.60;3.67;;;;;;;;;;5091770;28;20717;-71
2022/10/04 03:10:39;;;;;;;5.30;3.40;;;;;;;;;;5109218;28;20490;-71
2022/10/04 03:13:06;;;;;;;7.77;4.37;;;;;;;;;;5108152;28;20440;-71
2022/10/04 03:15:33;;;;;;;4.17;3.77;;;;;;;;;;5110487;28;20496;-71
2022/10/04 03:18:00;;;;;;;6.67;4.37;;;;;;;;;;5108674;28;20454;-71
2022/10/04 03:20:29;;;;;;;7.83;3.80;;;;;;;;;;5110743;28;20511;-72
2022/10/04 03:22:56;;;;;;;6.23;4.03;;;;;;;;;;5093260;28;20450;-71
2022/10/04 03:25:26;;;;;;;4.77;3.63;;;;;;;;;;5108700;28;20948;-72
2022/10/04 03:27:54;;;;;;;4.40;3.80;;;;;;;;;;5104003;28;20455;-72
2022/10/04 03:30:21;;;;;;;5.50;3.80;;;;;;;;;;5106067;28;20455;-72
2022/10/04 03:32:49;;;;;;;7.13;3.40;;;;;;;;;;5095737;28;20445;-72
2022/10/04 03:35:19;;;;;;;4.83;3.60;;;;;;;;;;5109021;28;20539;-72
2022/10/04 03:37:48;;;;;;;5.77;4.27;;;;;;;;;;5109352;28;20453;-71
2022/10/04 03:40:16;;;;;;;7.20;3.67;;;;;;;;;;5097817;28;20500;-72
2022/10/04 03:42:44;;;;;;;6.80;3.33;;;;;;;;;;5102102;28;20457;-71
2022/10/04 03:45:14;;;;;;;4.20;3.80;;;;;;;;;;5108839;28;20743;-71
2022/10/04 03:47:44;;;;;;;5.30;4.07;;;;;;;;;;5100723;28;20470;-72
2022/10/04 03:50:15;;;;;;;7.23;4.17;;;;;;;;;;5110248;28;20506;-72
2022/10/04 03:52:45;;;;;;;8.40;3.10;;;;;;;;;;5110872;28;20445;-71
2022/10/04 03:55:15;;;;;;;4.17;3.40;;;;;;;;;;5109600;28;20444;-72
2022/10/04 03:57:43;;;;;;;4.90;3.63;;;;;;;;;;5110940;28;20450;-72
2022/10/04 04:00:10;;;;;;;6.00;3.30;;;;;;;;;;5114067;28;20442;-72
2022/10/04 04:02:41;;;;;;;5.40;3.50;;;;;;;;;;5112037;28;20449;-72
2022/10/04 04:05:11;;;;;;;5.33;3.30;;;;;;;;;;5102062;28;20465;-72
2022/10/04 04:07:40;;;;;;;5.50;4.03;;;;;;;;;;5111141;28;20443;-71
2022/10/04 04:10:13;;;;;;;3.30;2.57;;;;;;;;;;5110697;28;20469;-75
2022/10/04 04:12:46;;;;;;;4.47;3.20;;;;;;;;;;5106238;28;20944;-71
2022/10/04 04:15:14;;;;;;;4.83;3.40;;;;;;;;;;5109396;28;20517;-73
2022/10/04 04:17:43;;;;;;;6.83;3.30;;;;;;;;;;5103992;28;20843;-72
2022/10/04 04:20:17;;;;;;;3.07;2.47;;;;;;;;;;5103594;28;20443;-71
2022/10/04 04:22:45;;;;;;;4.50;3.30;;;;;;;;;;5093319;28;20450;-72
2022/10/04 04:25:16;;;;;;;5.37;4.20;;;;;;;;;;5105117;28;20812;-71
2022/10/04 04:27:49;;;;;;;5.27;3.20;;;;;;;;;;5098297;28;20445;-72
2022/10/04 04:30:17;;;;;;;5.90;3.43;;;;;;;;;;5109574;28;20440;-75
2022/10/04 04:32:46;;;;;;;4.97;3.80;;;;;;;;;;5110895;28;20447;-73
2022/10/04 04:35:21;;;;;;;4.07;3.07;;;;;;;;;;5094329;28;20585;-74
2022/10/04 04:38:02;;;;;;;3.83;3.43;;;;;;;;;;5106335;28;20442;-74
2022/10/04 04:40:29;;;;;;;4.03;3.63;;;;;;;;;;5102005;28;20494;-72
2022/10/04 04:42:59;;;;;;;6.23;3.80;;;;;;;;;;5113879;27;20545;-72
2022/10/04 04:45:28;;;;;;;3.93;3.20;;;;;;;;;;5112790;28;20447;-71
2022/10/04 04:47:56;;;;;;;7.97;4.17;;;;;;;;;;5107975;28;20451;-79
2022/10/04 04:50:26;;;;;;;6.30;3.97;;;;;;;;;;5114799;28;20514;-74
2022/10/04 04:52:55;;;;;;;6.73;4.20;;;;;;;;;;5106116;28;20458;-69
2022/10/04 04:55:23;;;;;;;5.70;4.17;;;;;;;;;;5104761;28;20456;-74
2022/10/04 04:57:52;;;;;;;5.20;3.17;;;;;;;;;;5120805;28;20535;-73
2022/10/04 05:00:24;;;;;;;3.40;3.10;;;;;;;;;;5121785;28;20442;-74
2022/10/04 05:02:53;;;;;;;7.60;4.10;;;;;;;;;;5104713;28;20483;-72
2022/10/04 05:05:22;;;;;;;9.33;3.37;;;;;;;;;;5120857;28;20453;-75
2022/10/04 05:07:50;;;;;;;4.37;3.10;;;;;;;;;;5119627;28;20876;-72
2022/10/04 05:10:29;;;;;;;8.10;4.10;;;;;;;;;;5120609;28;20449;-74
2022/10/04 05:12:58;;;;;;;4.83;3.30;;;;;;;;;;5118158;28;20442;-74
2022/10/04 05:15:27;;;;;;;3.53;2.60;;;;;;;;;;5118035;28;21263;-74
2022/10/04 05:17:54;;;;;;;4.37;3.83;;;;;;;;;;5113624;28;20442;-74
2022/10/04 05:20:21;;;;;;;13.00;3.23;;;;;;;;;;5113511;28;20482;-73
2022/10/04 05:22:50;;;;;;;4.07;2.77;;;;;;;;;;5114311;28;20474;-73
2022/10/04 05:25:22;;;;;;;3.67;2.97;;;;;;;;;;5113530;28;20446;-74
2022/10/04 05:27:50;;;;;;;7.83;3.97;;;;;;;;;;5113614;28;20450;-73
2022/10/04 05:30:26;;;;;;;4.90;3.27;;;;;;;;;;5113893;28;20542;-74
2022/10/04 05:32:58;;;;;;;8.20;4.17;;;;;;;;;;5113012;28;20460;-74
2022/10/04 05:35:27;;;;;;;5.23;3.83;;;;;;;;;;5100872;28;20452;-75
2022/10/04 05:37:59;;;;;;;4.87;3.03;;;;;;;;;;5112571;28;20831;-74
2022/10/04 05:40:41;;;;;;;4.90;3.20;;;;;;;;;;5113603;28;20449;-74
2022/10/04 05:43:22;;;;;;;4.00;3.13;;;;;;;;;;5112624;28;20478;-74
2022/10/04 05:46:07;;;;;;;3.50;3.00;;;;;;;;;;5112992;27;20790;-73
2022/10/04 05:48:36;;;;;;;5.10;3.60;;;;;;;;;;5101635;28;20456;-74
2022/10/04 05:51:12;;;;;;;3.90;2.73;;;;;;;;;;5112263;28;20453;-74
2022/10/04 05:53:43;;;;;;;7.17;4.00;;;;;;;;;;5113524;28;20448;-74
2022/10/04 05:56:18;;;;;;;6.73;2.53;;;;;;;;;;5112310;28;20450;-74
2022/10/04 05:58:58;;;;;;;9.00;4.00;;;;;;;;;;5113086;28;20922;-74
2022/10/04 06:01:37;;;;;;;6.10;4.00;;;;;;;;;;5109656;28;20827;-75
2022/10/04 06:04:17;;;;;;;3.70;2.90;;;;;;;;;;5112183;28;20952;-74
2022/10/04 06:06:48;;;;;;;7.63;3.33;;;;;;;;;;5112855;28;20449;-75
2022/10/04 06:09:20;;;;;;;4.13;3.40;;;;;;;;;;5125192;27;20458;-74
2022/10/04 06:11:52;;;;;;;3.70;3.13;;;;;;;;;;5126527;27;20486;-75
2022/10/04 06:14:30;;;;;;;5.47;2.70;;;;;;;;;;5113191;28;20447;-74
2022/10/04 06:17:04;;;;;;;5.10;3.20;;;;;;;;;;5109586;27;20441;-74
2022/10/04 06:19:47;;;;;;;4.27;2.67;;;;;;;;;;5109508;28;20441;-74
2022/10/04 06:22:16;;;;;;;4.27;3.10;;;;;;;;;;5112505;28;20468;-75
2022/10/04 06:24:45;;;;;;;3.80;2.70;;;;;;;;;;5099225;28;20836;-74
2022/10/04 06:27:15;;;;;;;6.50;3.57;;;;;;;;;;5112055;28;20449;-75
2022/10/04 06:29:44;;;;;;;5.00;4.13;;;;;;;;;;5112220;28;20801;-74
2022/10/04 06:32:19;;;;;;;5.97;3.60;;;;;;;;;;5111944;28;20442;-74
2022/10/04 06:34:56;;;;;;;7.00;3.07;;;;;;;;;;5112277;28;20444;-74
2022/10/04 06:37:40;;;;;;;5.93;3.20;;;;;;;;;;5112194;28;20429;-74
2022/10/04 06:40:25;;;;;;;6.57;4.13;;;;;;;;;;5093228;27;20453;-74
2022/10/04 06:42:58;;;;;;;4.17;3.10;;;;;;;;;;5099676;28;20478;-73
2022/10/04 06:45:32;;;;;;;11.13;4.30;;;;;;;;;;5112376;28;20454;-74
2022/10/04 06:48:09;;;;;;;5.70;3.73;;;;;;;;;;5111452;28;20444;-74
2022/10/04 06:50:40;;;;;;;3.87;3.10;;;;;;;;;;5111708;28;20508;-74
2022/10/04 06:53:15;;;;;;;4.73;4.07;;;;;;;;;;5111948;28;20451;-74
2022/10/04 06:55:54;;;;;;;10.33;4.97;;;;;;;;;;5112100;28;20479;-74
2022/10/04 06:58:36;;;;;;;8.70;4.50;;;;;;;;;;5111427;28;20440;-74
2022/10/04 07:01:05;;;;;;;5.83;3.43;;;;;;;;;;5111480;28;20796;-74
2022/10/04 07:03:35;;;;;;;5.43;3.63;;;;;;;;;;5112025;28;20439;-74
2022/10/04 07:06:04;;;;;;;6.53;3.60;;;;;;;;;;5111647;28;20809;-73
2022/10/04 07:08:37;;;;;;;8.07;3.90;;;;;;;;;;5110130;28;20452;-74
2022/10/04 07:11:08;;;;;;;4.77;3.20;;;;;;;;;;5110799;28;20562;-74
2022/10/04 07:13:40;;;;;;;6.90;3.97;;;;;;;;;;5111852;28;20941;-75
2022/10/04 07:16:10;;;;;;;4.60;3.47;;;;;;;;;;5111846;28;20829;-75
2022/10/04 07:18:43;;;;;;;4.17;3.47;;;;;;;;;;5111850;28;20761;-75
2022/10/04 07:21:14;;;;;;;4.27;3.30;;;;;;;;;;5110912;28;20471;-74
2022/10/04 07:23:47;;;;;;;4.80;3.07;;;;;;;;;;5111847;28;21027;-75
2022/10/04 07:26:18;;;;;;;4.83;4.10;;;;;;;;;;5111395;28;20444;-75
2022/10/04 07:31:33;;;;;;;5.50;3.80;;;;;;;;;;5111899;28;20467;-75
2022/10/04 07:34:02;;;;;;;5.80;3.57;;;;;;;;;;5111145;28;20449;-74
2022/10/04 07:36:38;;;;;;;4.53;3.70;;;;;;;;;;5111707;28;20836;-74
2022/10/04 07:39:10;;;;;;;4.07;2.83;;;;;;;;;;5110842;28;20893;-74
2022/10/04 07:41:40;;;;;;;5.00;3.23;;;;;;;;;;5111986;28;20824;-75
2022/10/04 07:44:15;;;;;;;13.43;4.50;;;;;;;;;;5111106;28;20443;-75
2022/10/04 07:46:48;;;;;;;3.70;3.20;;;;;;;;;;5111730;28;20508;-75
2022/10/04 07:49:15;;;;;;;6.00;3.80;;;;;;;;;;5110206;28;20447;-74
2022/10/04 07:51:53;;;;;;;4.67;3.50;;;;;;;;;;5111698;28;20446;-75
2022/10/04 07:54:23;;;;;;;8.80;5.30;;;;;;;;;;5111810;28;20794;-75
2022/10/04 07:56:54;;;;;;;5.43;3.40;;;;;;;;;;5111198;28;20524;-73
2022/10/04 07:59:33;;;;;;;6.23;4.53;;;;;;;;;;5111311;28;20448;-74
2022/10/04 08:02:08;;;;;;;7.97;5.03;;;;;;;;;;5110873;28;20477;-74
2022/10/04 08:04:41;;;;;;;7.10;4.93;;;;;;;;;;5111388;28;20450;-75
2022/10/04 08:07:15;;;;;;;4.57;3.30;;;;;;;;;;5110749;28;20440;-74
2022/10/04 08:09:46;;;;;;;4.20;3.37;;;;;;;;;;5111152;28;20451;-75
2022/10/04 08:12:18;;;;;;;6.57;4.10;;;;;;;;;;5114162;28;20483;-74
2022/10/04 08:14:51;;;;;;;4.30;3.90;;;;;;;;;;5115137;28;20959;-74
2022/10/04 08:17:24;;;;;;;22.00;13.40;;;;;;;;;;5115407;28;20498;-74
2022/10/04 08:19:57;;;;;;;15.20;11.33;;;;;;;;;;5114264;28;20522;-74
2022/10/04 08:22:31;;;;;;;10.70;8.20;;;;;;;;;;5115107;28;20831;-74
2022/10/04 08:25:02;;;;;;;13.03;5.40;;;;;;;;;;5114868;28;20446;-75
2022/10/04 08:27:37;;;;;;;5.20;4.13;;;;;;;;;;5114991;28;20436;-74
2022/10/04 08:30:05;;;;;;;6.60;5.20;;;;;;;;;;5114437;28;20458;-74
2022/10/04 08:32:41;;;;;;;7.43;3.57;;;;;;;;;;5114823;28;20447;-75
2022/10/04 08:35:24;;;;;;;6.47;4.33;;;;;;;;;;5114110;28;20471;-74
2022/10/04 08:38:00;;;;;;;5.67;3.80;;;;;;;;;;5102740;28;20539;-73
2022/10/04 08:40:49;;;;;;;4.30;3.83;;;;;;;;;;5114518;28;20781;-74
2022/10/04 08:43:25;;;;;;;4.70;3.63;;;;;;;;;;5113958;28;20464;-75
2022/10/04 08:46:08;;;;;;;5.97;3.30;;;;;;;;;;5114492;28;20435;-73
2022/10/04 08:48:54;;;;;;;6.80;3.40;;;;;;;;;;5114629;28;20454;-75
2022/10/04 08:51:36;;;;;;;10.17;4.03;;;;;;;;;;5114543;27;20523;-74
2022/10/04 08:54:20;;;;;;;6.07;3.30;;;;;;;;;;5114426;28;20436;-75
2022/10/04 08:57:06;;;;;;;3.47;2.90;;;;;;;;;;5115019;28;20857;-75
2022/10/04 08:59:39;;;;;;;3.57;2.80;;;;;;;;;;5116652;28;20531;-75
2022/10/04 09:02:18;;;;;;;5.20;3.10;;;;;;;;;;5118166;28;20472;-76
2022/10/04 09:05:00;;;;;;;5.30;3.03;;;;;;;;;;5114960;28;20448;-75
2022/10/04 09:07:47;;;;;;;4.27;2.50;;;;;;;;;;5121431;28;20442;-77
2022/10/04 09:13:19;;;;;;;5.50;3.30;;;;;;;;;;5112812;27;20652;-74
2022/10/04 09:15:55;;;;;;;5.43;3.93;;;;;;;;;;5109538;28;20448;-74
2022/10/04 09:18:23;;;;;;;5.00;3.20;;;;;;;;;;5109268;28;20455;-74
2022/10/04 09:21:02;;;;;;;4.97;3.83;;;;;;;;;;5105867;28;20455;-74
2022/10/04 09:23:50;;;;;;;6.40;3.50;;;;;;;;;;5109639;28;20434;-74
2022/10/04 09:26:22;;;;;;;4.90;3.77;;;;;;;;;;5104595;28;20448;-74
2022/10/04 09:29:06;;;;;;;6.17;3.40;;;;;;;;;;5109208;28;20444;-74
2022/10/04 09:31:51;;;;;;;4.40;3.50;;;;;;;;;;5108699;28;20472;-74
2022/10/04 09:34:27;;;;;;;3.60;3.00;;;;;;;;;;5109341;28;20469;-74
2022/10/04 09:37:00;;;;;;;4.43;3.00;;;;;;;;;;5108383;28;20435;-74
2022/10/04 09:39:57;;;;;;;5.50;3.50;;;;;;;;;;5108808;28;20448;-74
2022/10/04 09:42:47;;;;;;;3.40;2.57;;;;;;;;;;5053307;28;20481;-74
2022/10/04 09:45:31;;;;;;;2.83;2.37;;;;;;;;;;5105000;28;20451;-74
2022/10/04 09:48:16;;;;;;;3.67;2.50;;;;;;;;;;5108559;28;20440;-74
2022/10/04 09:50:59;;;;;;;2.87;2.13;;;;;;;;;;5108194;28;20439;-74
2022/10/04 09:53:45;;;;;;;2.60;2.30;;;;;;;;;;5109727;28;20447;-74
2022/10/04 09:56:25;;;;;;;2.47;2.03;;;;;;;;;;5109901;28;20443;-74
2022/10/04 09:59:04;;;;;;;3.20;2.60;;;;;;;;;;5109317;28;20440;-74
2022/10/04 10:01:35;;;;;;;2.10;1.77;;;;;;;;;;5110332;28;20524;-75
2022/10/04 10:04:21;;;;;;;3.70;1.90;;;;;;;;;;5109456;28;20440;-74
2022/10/04 10:06:55;;;;;;;3.17;2.10;;;;;;;;;;5111134;28;20557;-74
2022/10/04 10:15:10;;;;;;;2.63;1.70;;;;;;;;;;5107218;28;20447;-74
2022/10/04 10:17:41;;;;;;;4.40;2.80;;;;;;;;;;5108195;28;20443;-75
2022/10/04 10:20:22;;;;;;;4.40;2.60;;;;;;;;;;5106872;28;20527;-75
2022/10/04 10:23:22;;;;;;;2.40;2.20;;;;;;;;;;5104150;28;20456;-74
2022/10/04 10:26:07;;;;;;;2.90;1.97;;;;;;;;;;5094479;28;20449;-74
2022/10/04 10:28:47;;;;;;;3.03;1.93;;;;;;;;;;5084091;28;20482;-75
2022/10/04 10:31:27;;;;;;;1.90;1.70;;;;;;;;;;5093637;28;20432;-73
2022/10/04 10:34:07;;;;;;;2.87;2.07;;;;;;;;;;5093526;28;20448;-75
2022/10/04 10:36:59;;;;;;;3.37;2.50;;;;;;;;;;5093844;28;20452;-75
2022/10/04 10:39:44;;;;;;;7.60;2.67;;;;;;;;;;5093644;28;20429;-75
2022/10/04 10:42:21;;;;;;;3.37;1.77;;;;;;;;;;5093137;28;20452;-75
2022/10/04 10:44:58;;;;;;;2.80;2.03;;;;;;;;;;5094062;28;20498;-75
2022/10/04 10:47:32;;;;;;;5.00;2.33;;;;;;;;;;5093700;28;20443;-75
2022/10/04 10:50:07;;;;;;;2.33;2.13;;;;;;;;;;5092459;28;20441;-75
2022/10/04 10:53:03;;;;;;;4.50;2.50;;;;;;;;;;5093816;28;20559;-75
2022/10/04 10:55:52;;;;;;;2.80;2.13;;;;;;;;;;5057921;28;20471;-75
2022/10/04 10:58:45;;;;;;;3.10;2.27;;;;;;;;;;5093814;28;20480;-75
2022/10/04 11:01:32;;;;;;;5.70;2.70;;;;;;;;;;5092867;28;20445;-75
2022/10/04 11:04:29;;;;;;;3.30;2.47;;;;;;;;;;5089661;28;20500;-75
2022/10/04 11:07:23;;;;;;;2.97;2.20;;;;;;;;;;5093228;28;20436;-75
2022/10/04 11:10:03;;;;;;;5.43;2.70;;;;;;;;;;5093015;28;20473;-75
2022/10/04 11:12:47;;;;;;;5.13;2.27;;;;;;;;;;5093238;28;20504;-75
2022/10/04 11:15:39;;;;;;;6.27;2.07;;;;;;;;;;5093068;28;20441;-74
2022/10/04 11:18:39;;;;;;;2.23;2.03;;;;;;;;;;5080280;28;20536;-75
2022/10/04 11:21:36;;;;;;;5.63;2.77;;;;;;;;;;5091554;28;20433;-75
2022/10/04 11:24:21;;;;;;;2.43;1.97;;;;;;;;;;5092823;28;20444;-75
2022/10/04 11:27:05;;;;;;;2.10;1.53;;;;;;;;;;5092822;28;20445;-74
2022/10/04 11:29:36;;;;;;;1.97;1.50;;;;;;;;;;5092319;28;20904;-75
2022/10/04 11:32:27;;;;;;;2.10;1.50;;;;;;;;;;5092023;28;20468;-75
2022/10/04 11:35:10;;;;;;;3.47;2.30;;;;;;;;;;5091122;28;20449;-73
2022/10/04 11:37:46;;;;;;;2.70;1.77;;;;;;;;;;5092988;28;20494;-74
2022/10/04 11:40:25;;;;;;;2.70;2.23;;;;;;;;;;5091446;28;20924;-75
2022/10/04 11:43:00;;;;;;;3.97;1.70;;;;;;;;;;5092177;28;20467;-72
2022/10/04 11:45:47;;;;;;;3.17;2.10;;;;;;;;;;5092683;28;20497;-75
2022/10/04 11:48:28;;;;;;;2.77;1.80;;;;;;;;;;5091921;28;20452;-75
2022/10/04 11:51:18;;;;;;;4.13;2.27;;;;;;;;;;5081574;28;20931;-74
2022/10/04 11:53:57;;;;;;;7.43;2.77;;;;;;;;;;5092766;28;20472;-75
2022/10/04 11:56:33;;;;;;;1.83;1.73;;;;;;;;;;5092672;28;20440;-75
2022/10/04 11:59:19;;;;;;;2.20;1.53;;;;;;;;;;5091819;28;20453;-74
2022/10/04 12:01:58;;;;;;;2.30;1.83;;;;;;;;;;5092083;28;20448;-75
2022/10/04 12:04:44;;;;;;;2.73;2.10;;;;;;;;;;5092350;28;20440;-75
2022/10/04 12:07:34;;;;;;;2.93;2.13;;;;;;;;;;5091955;28;20732;-75
2022/10/04 12:10:11;;;;;;;2.30;1.60;;;;;;;;;;5091791;28;20476;-75
2022/10/04 12:12:56;;;;;;;2.00;1.73;;;;;;;;;;5092012;28;20499;-75
2022/10/04 12:15:35;;;;;;;2.33;1.77;;;;;;;;;;5092679;28;20441;-74
2022/10/04 12:18:17;;;;;;;3.00;2.53;;;;;;;;;;5078595;28;20445;-74
2022/10/04 12:20:56;;;;;;;3.03;1.97;;;;;;;;;;5091597;28;20782;-75
2022/10/04 12:23:36;;;;;;;2.13;1.50;;;;;;;;;;5092199;28;20436;-74
2022/10/04 12:26:20;;;;;;;6.87;1.90;;;;;;;;;;5091247;28;20470;-75
2022/10/04 12:28:55;;;;;;;3.90;1.87;;;;;;;;;;5091707;28;20448;-75
2022/10/04 12:31:25;;;;;;;5.33;2.10;;;;;;;;;;5092048;28;20449;-74
2022/10/04 12:33:56;;;;;;;2.10;1.90;;;;;;;;;;5091662;28;20487;-72
2022/10/04 12:36:30;;;;;;;1.93;1.60;;;;;;;;;;5091624;28;20449;-74
2022/10/04 12:39:11;;;;;;;2.13;1.73;;;;;;;;;;5090715;28;20467;-74
2022/10/04 12:41:46;;;;;;;2.10;1.90;;;;;;;;;;5091702;28;20754;-74
2022/10/04 12:44:21;;;;;;;4.50;1.80;;;;;;;;;;5090887;28;21119;-74
2022/10/04 12:46:57;;;;;;;2.53;1.87;;;;;;;;;;5091623;28;20444;-74
2022/10/04 12:49:30;;;;;;;2.73;1.50;;;;;;;;;;5091308;28;20819;-74
2022/10/04 12:51:59;;;;;;;2.70;1.80;;;;;;;;;;5091035;28;20452;-75
2022/10/04 12:54:33;;;;;;;2.50;1.80;;;;;;;;;;5091913;28;20453;-75
2022/10/04 12:57:05;;;;;;;2.03;1.60;;;;;;;;;;5091274;28;20812;-75
2022/10/04 12:59:41;;;;;;;2.23;1.80;;;;;;;;;;5090907;28;20928;-74
2022/10/04 13:02:20;;;;;;;3.40;1.80;;;;;;;;;;5091082;28;20446;-76
2022/10/04 13:04:49;;;;;;;2.10;1.93;;;;;;;;;;5091944;28;20436;-75
2022/10/04 13:07:27;;;;;;;2.20;1.40;;;;;;;;;;5092362;28;20486;-75
2022/10/04 13:10:02;;;;;;;3.20;1.93;;;;;;;;;;5091170;28;20441;-75
2022/10/04 13:12:36;;;;;;;2.90;1.60;;;;;;;;;;5094329;28;20808;-75
2022/10/04 13:15:18;;;;;;;3.40;1.20;;;;;;;;;;5093203;28;20852;-75
2022/10/04 13:17:49;;;;;;;4.20;1.50;;;;;;;;;;5088780;28;20997;-75
2022/10/04 13:20:22;;;;;;;2.87;1.50;;;;;;;;;;5090894;28;20443;-75
2022/10/04 13:22:51;;;;;;;3.20;1.87;;;;;;;;;;5091278;28;20449;-75
2022/10/04 13:25:27;;;;;;;1.60;1.30;;;;;;;;;;5091083;28;20441;-74
2022/10/04 13:27:59;;;;;;;2.43;1.50;;;;;;;;;;5090551;28;20440;-74
2022/10/04 13:30:27;;;;;;;2.47;1.53;;;;;;;;;;5090285;28;20433;-75
2022/10/04 13:32:58;;;;;;;2.60;1.57;;;;;;;;;;5090264;28;20481;-75
2022/10/04 13:35:27;;;;;;;1.67;1.13;;;;;;;;;;5090811;28;20440;-75
2022/10/04 13:38:06;;;;;;;2.10;1.60;;;;;;;;;;5090777;28;20444;-75
2022/10/04 13:40:39;;;;;;;2.70;1.60;;;;;;;;;;5090601;28;20856;-76
2022/10/04 13:43:21;;;;;;;1.60;1.50;;;;;;;;;;5090440;28;20445;-74
2022/10/04 13:45:56;;;;;;;2.83;1.37;;;;;;;;;;5088897;28;20783;-75
2022/10/04 13:48:33;;;;;;;1.97;1.20;;;;;;;;;;5091158;28;20841;-74
2022/10/04 13:51:18;;;;;;;1.70;1.50;;;;;;;;;;5081134;28;20527;-74
2022/10/04 13:56:50;;;;;;;3.50;1.30;;;;;;;;;;5051862;28;20431;-77
2022/10/04 13:59:21;;;;;;;2.07;1.40;;;;;;;;;;5093909;28;20523;-76
2022/10/04 14:02:12;;;;;;;2.40;1.83;;;;;;;;;;5095143;28;20486;-76
2022/10/04 14:04:48;;;;;;;1.93;1.10;;;;;;;;;;5094783;28;20461;-76
2022/10/04 14:07:36;;;;;;;2.97;1.70;;;;;;;;;;5094352;28;20452;-76
2022/10/04 14:10:11;;;;;;;3.10;1.63;;;;;;;;;;5094303;28;20474;-76
2022/10/04 14:13:01;;;;;;;2.70;1.73;;;;;;;;;;5094288;28;20499;-77
2022/10/04 14:15:47;;;;;;;2.93;1.70;;;;;;;;;;5069656;28;20548;-76
2022/10/04 14:18:32;;;;;;;3.80;1.40;;;;;;;;;;5093987;28;20448;-76
2022/10/04 14:21:33;;;;;;;3.00;1.60;;;;;;;;;;5091552;28;20486;-76
2022/10/04 14:24:12;;;;;;;2.80;1.80;;;;;;;;;;5093832;28;20887;-76
2022/10/04 14:27:06;;;;;;;2.00;1.77;;;;;;;;;;5094416;28;20448;-76
2022/10/04 14:29:48;;;;;;;1.70;1.60;;;;;;;;;;5057712;28;20468;-76
2022/10/04 14:32:45;;;;;;;2.37;2.00;;;;;;;;;;5091226;28;20557;-76
2022/10/04 14:35:15;;;;;;;1.80;1.53;;;;;;;;;;5030767;28;20474;-76
2022/10/04 14:38:08;;;;;;;1.93;1.73;;;;;;;;;;5080824;28;20453;-75
2022/10/04 14:40:58;;;;;;;2.00;1.63;;;;;;;;;;5093667;28;20441;-76
2022/10/04 14:43:44;;;;;;;1.83;1.40;;;;;;;;;;5093994;28;20436;-76
2022/10/04 14:46:17;;;;;;;1.73;1.40;;;;;;;;;;5093341;28;20447;-76
2022/10/04 14:48:50;;;;;;;3.13;1.33;;;;;;;;;;5093033;28;20807;-75
2022/10/04 14:51:31;;;;;;;3.70;1.80;;;;;;;;;;5093538;28;20447;-76
2022/10/04 14:54:00;;;;;;;1.40;1.30;;;;;;;;;;5093732;28;20545;-76
2022/10/04 14:56:43;;;;;;;4.40;1.60;;;;;;;;;;5093951;28;20871;-76
2022/10/04 14:59:29;;;;;;;2.70;1.67;;;18.90;63.50;;;;;;5093053;28;20433;-75
2022/10/04 15:02:12;;;;;;;1.63;1.43;;;;;;;;;;5089051;28;20428;-76
2022/10/04 15:04:59;;;;;;;2.40;1.57;;;;;;;;;;5093623;28;20470;-76
2022/10/04 15:07:30;;;;;;;2.07;1.70;;;;;;;;;;5093388;28;20444;-76
2022/10/04 15:10:04;;;;;;;1.60;1.50;;;;;;;;;;5092448;28;20811;-73
2022/10/04 15:12:54;;;;;;;2.10;1.60;;;;;;;;;;5093433;28;20498;-76
2022/10/04 15:15:36;;;;;;;2.10;1.17;;;23.40;99.90;;;;;;5093480;28;20445;-76
2022/10/04 15:18:11;;;;;;;1.93;1.43;;;24.60;99.30;;;;;;5093147;28;20452;-76
2022/10/04 15:20:52;;;;;;;3.30;1.93;;;24.50;96.30;;;;;;5092697;28;20439;-76
2022/10/04 15:23:30;;;;;;;2.27;1.60;;;24.30;93.30;;;;;;5093389;28;20798;-76
2022/10/04 15:26:05;;;;;;;2.40;2.00;;;24.70;91.90;;;;;;5092280;28;20444;-76
2022/10/04 15:28:57;;;;;;;4.57;2.10;;;24.80;87.10;;;;;;5093026;28;20194;-77
2022/10/04 15:31:30;;;;;;;2.15;1.95;;;25.00;84.00;;;;;;5093182;28;20186;-77
2022/10/04 15:34:05;;;;;;;2.30;1.58;;;25.00;81.80;;;;;;5092153;28;20676;-74
2022/10/04 15:36:59;;;;;;;1.75;1.55;;;25.10;77.20;;;;;;5093249;28;20291;-76
2022/10/04 15:39:54;;;;;;;2.17;1.80;;;25.00;77.20;;;;;;5092411;28;20663;-76
2022/10/04 15:42:25;;;;;;;2.28;1.52;;;25.20;75.20;;;;;;5092890;28;20212;-75